Time;durP1;ratioP1;P1;durP2;ratioP2;P2;SDS_P1;SDS_P2;PMS_P1;PMS_P2;Temp;Humidity;BMP_temperature;BMP_pressure;BME280_temperature;BME280_humidity;BME280_pressure;Samples;Min_cycle;Max_cycle;Signal;HPM_P1;HPM_P2
2023/08/10 00:01:27;;;;;;;;;;;;;;;13.64;100.00;102061.25;4936338;28;19930;-83
2023/08/10 00:04:14;;;;;;;;;;;;;;;13.65;100.00;102063.84;4926742;28;19937;-83
2023/08/10 00:07:02;;;;;;;;;;;;;;;13.63;100.00;102060.41;4940144;28;19933;-82
2023/08/10 00:09:48;;;;;;;;;;;;;;;13.63;100.00;102055.06;4934647;28;19930;-82
2023/08/10 00:12:33;;;;;;;;;;;;;;;13.63;100.00;102055.06;4935424;28;20013;-83
2023/08/10 00:15:19;;;;;;;;;;;;;;;13.62;100.00;102055.97;4921235;28;19993;-84
2023/08/10 00:18:11;;;;;;;;;;;;;;;13.63;100.00;102063.06;4938220;28;20098;-82
2023/08/10 00:20:57;;;;;;;;;;;;;;;13.63;100.00;102059.53;4923612;28;19930;-82
2023/08/10 00:23:43;;;;;;;;;;;;;;;13.64;100.00;102064.78;4937704;28;20026;-83
2023/08/10 00:26:31;;;;;;;;;;;;;;;13.66;100.00;102067.38;4937168;28;20366;-83
2023/08/10 00:29:16;;;;;;;;;;;;;;;13.65;100.00;102066.53;4937478;28;19930;-82
2023/08/10 00:32:05;;;;;;;;;;;;;;;13.66;100.00;102064.72;4908311;28;19926;-80
2023/08/10 00:34:50;;;;;;;;;;;;;;;13.66;100.00;102064.72;4924577;28;20060;-82
2023/08/10 00:37:46;;;;;;;;;;;;;;;13.66;100.00;102056.72;4939889;28;19933;-82
2023/08/10 00:40:32;;;;;;;;;;;;;;;13.67;100.00;102055.81;4917629;28;19989;-82
2023/08/10 00:43:18;;;;;;;;;;;;;;;13.67;100.00;102062.00;4937051;28;19930;-83
2023/08/10 00:46:03;;;;;;;;;;;;;;;13.68;100.00;102061.06;4932646;28;19949;-81
2023/08/10 00:48:50;;;;;;;;;;;;;;;13.68;100.00;102058.41;4917689;28;19945;-83
2023/08/10 00:51:42;;;;;;;;;;;;;;;13.69;100.00;102061.94;4930554;28;19926;-82
2023/08/10 00:54:30;;;;;;;;;;;;;;;13.69;100.00;102060.13;4934105;28;19922;-82
2023/08/10 00:57:16;;;;;;;;;;;;;;;13.67;100.00;102051.34;4936104;28;20491;-81
2023/08/10 01:00:04;;;;;;;;;;;;;;;13.64;100.00;102047.94;4937732;28;20888;-82
2023/08/10 01:02:50;;;;;;;;;;;;;;;13.62;100.00;102049.81;4937580;28;20414;-81
2023/08/10 01:05:43;;;;;;;;;;;;;;;13.59;100.00;102048.13;4937570;28;20285;-82
2023/08/10 01:08:31;;;;;;;;;;;;;;;13.54;100.00;102050.97;4907775;28;19927;-81
2023/08/10 01:11:19;;;;;;;;;;;;;;;13.49;100.00;102050.28;4935182;28;20053;-81
2023/08/10 01:14:14;;;;;;;;;;;;;;;13.44;100.00;102050.44;4936489;28;19927;-83
2023/08/10 01:17:00;;;;;;;;;;;;;;;13.40;100.00;102055.94;4913474;28;19953;-82
2023/08/10 01:19:45;;;;;;;;;;;;;;;13.34;100.00;102059.66;4928716;28;19926;-82
2023/08/10 01:22:43;;;;;;;;;;;;;;;13.29;100.00;102059.84;4933207;28;20017;-84
2023/08/10 01:25:32;;;;;;;;;;;;;;;13.23;100.00;102051.25;4916276;28;19922;-82
2023/08/10 01:28:18;;;;;;;;;;;;;;;13.18;100.00;102056.72;4914890;28;19981;-83
2023/08/10 01:31:04;;;;;;;;;;;;;;;13.15;100.00;102057.72;4920376;28;19926;-82
2023/08/10 01:33:50;;;;;;;;;;;;;;;13.12;100.00;102067.56;4936530;28;20607;-83
2023/08/10 01:36:36;;;;;;;;;;;;;;;13.07;100.00;102072.22;4900021;28;20017;-83
2023/08/10 01:39:21;;;;;;;;;;;;;;;13.03;100.00;102077.63;4898529;28;19962;-82
2023/08/10 01:42:07;;;;;;;;;;;;;;;12.98;100.00;102074.28;4930742;28;20383;-82
2023/08/10 01:44:56;;;;;;;;;;;;;;;12.93;100.00;102070.94;4917672;28;19934;-82
2023/08/10 01:48:17;;;;;;;;;;;;;;;12.89;100.00;102070.16;4916559;28;20370;-81
2023/08/10 01:51:03;;;;;;;;;;;;;;;12.87;100.00;102081.78;4908408;28;20024;-80
2023/08/10 01:53:58;;;;;;;;;;;;;;;12.84;100.00;102077.44;4934544;28;19973;-84
2023/08/10 01:56:44;;;;;;;;;;;;;;;12.81;100.00;102081.97;4912464;28;19977;-82
2023/08/10 01:59:30;;;;;;;;;;;;;;;12.76;100.00;102079.50;4935717;28;20349;-80
2023/08/10 02:02:15;;;;;;;;;;;;;;;12.73;100.00;102079.59;4934972;28;19938;-81
2023/08/10 02:05:01;;;;;;;;;;;;;;;12.70;100.00;102075.25;4933605;28;20485;-83
2023/08/10 02:07:49;;;;;;;;;;;;;;;12.68;100.00;102081.56;4933798;28;19951;-82
2023/08/10 02:10:34;;;;;;;;;;;;;;;12.68;100.00;102082.41;4903368;28;20032;-81
2023/08/10 02:13:20;;;;;;;;;;;;;;;12.65;100.00;102079.88;4933033;28;20048;-81
2023/08/10 02:16:11;;;;;;;;;;;;;;;12.64;100.00;102086.09;4933525;28;19930;-82
2023/08/10 02:18:56;;;;;;;;;;;;;;;12.64;100.00;102088.75;4916661;28;20001;-82
2023/08/10 02:21:42;;;;;;;;;;;;;;;12.63;100.00;102087.88;4921755;28;22254;-82
2023/08/10 02:24:28;;;;;;;;;;;;;;;12.63;100.00;102085.22;4934330;28;20392;-81
2023/08/10 02:27:14;;;;;;;;;;;;;;;12.62;100.00;102083.50;4919251;28;20020;-80
2023/08/10 02:29:59;;;;;;;;;;;;;;;12.62;100.00;102086.16;4935001;28;19938;-82
2023/08/10 02:32:45;;;;;;;;;;;;;;;12.62;100.00;102087.94;4915844;28;21812;-81
2023/08/10 02:35:31;;;;;;;;;;;;;;;12.62;100.00;102083.50;4916590;28;19957;-81
2023/08/10 02:38:16;;;;;;;;;;;;;;;12.64;100.00;102091.41;4918585;28;19930;-81
2023/08/10 02:41:02;;;;;;;;;;;;;;;12.66;100.00;102091.34;4917373;28;19941;-81
2023/08/10 02:43:48;;;;;;;;;;;;;;;12.68;100.00;102098.34;4920435;28;19960;-82
2023/08/10 02:46:33;;;;;;;;;;;;;;;12.69;100.00;102092.13;4903980;28;20426;-81
2023/08/10 02:49:19;;;;;;;;;;;;;;;12.72;100.00;102094.69;4932646;28;20456;-82
2023/08/10 02:52:05;;;;;;;;;;;;;;;12.75;100.00;102093.72;4935417;28;19937;-82
2023/08/10 02:54:51;;;;;;;;;;;;;;;12.77;100.00;102102.47;4935102;28;19957;-82
2023/08/10 02:57:37;;;;;;;;;;;;;;;12.77;100.00;102102.47;4920431;28;20472;-82
2023/08/10 03:00:22;;;;;;;;;;;;;;;12.80;100.00;102104.16;4906814;28;20024;-81
2023/08/10 03:03:08;;;;;;;;;;;;;;;12.80;100.00;102112.16;4914529;28;19926;-82
2023/08/10 03:05:54;;;;;;;;;;;;;;;12.83;100.00;102106.72;4924812;28;20062;-82
2023/08/10 03:08:40;;;;;;;;;;;;;;;12.84;100.00;102103.13;4934326;28;19953;-82
2023/08/10 03:11:25;;;;;;;;;;;;;;;12.87;100.00;102106.53;4932156;28;19961;-81
2023/08/10 03:14:11;;;;;;;;;;;;;;;12.88;100.00;102105.66;4924623;28;20360;-81
2023/08/10 03:16:57;;;;;;;;;;;;;;;12.90;100.00;102098.47;4917769;28;19961;-81
2023/08/10 03:19:43;;;;;;;;;;;;;;;12.92;100.00;102092.22;4937854;28;20135;-82
2023/08/10 03:22:29;;;;;;;;;;;;;;;12.93;100.00;102094.84;4922220;28;19926;-82
2023/08/10 03:25:15;;;;;;;;;;;;;;;12.94;100.00;102095.69;4924429;28;19937;-81
2023/08/10 03:28:00;;;;;;;;;;;;;;;12.96;100.00;102089.41;4914757;28;21822;-81
2023/08/10 03:30:46;;;;;;;;;;;;;;;12.98;100.00;102092.03;4922489;28;20011;-82
2023/08/10 03:33:36;;;;;;;;;;;;;;;12.98;100.00;102094.69;4939229;28;19926;-81
2023/08/10 03:36:25;;;;;;;;;;;;;;;13.01;100.00;102097.22;4921925;28;19976;-82
2023/08/10 03:39:11;;;;;;;;;;;;;;;13.04;100.00;102089.16;4927208;28;20313;-82
2023/08/10 03:41:56;;;;;;;;;;;;;;;13.06;100.00;102089.94;4924052;28;20410;-81
2023/08/10 03:44:42;;;;;;;;;;;;;;;13.07;100.00;102089.00;4940962;28;19972;-81
2023/08/10 03:47:27;;;;;;;;;;;;;;;13.08;100.00;102089.91;4911353;28;19926;-80
2023/08/10 03:50:14;;;;;;;;;;;;;;;13.09;100.00;102092.50;4923732;28;19934;-81
2023/08/10 03:53:00;;;;;;;;;;;;;;;13.10;100.00;102088.91;4938014;28;19961;-82
2023/08/10 03:55:45;;;;;;;;;;;;;;;13.12;100.00;102095.03;4935576;28;19926;-82
2023/08/10 03:58:31;;;;;;;;;;;;;;;13.15;100.00;102092.28;4939964;28;20286;-82
2023/08/10 04:01:19;;;;;;;;;;;;;;;13.17;100.00;102095.75;4938137;28;19922;-81
2023/08/10 04:04:05;;;;;;;;;;;;;;;13.20;100.00;102088.56;4936131;28;19937;-82
2023/08/10 04:06:50;;;;;;;;;;;;;;;13.21;100.00;102095.63;4923851;28;20076;-82
2023/08/10 04:09:36;;;;;;;;;;;;;;;13.23;100.00;102088.47;4939330;28;19934;-81
2023/08/10 04:12:22;;;;;;;;;;;;;;;13.25;100.00;102091.94;4941788;28;19933;-82
2023/08/10 04:15:07;;;;;;;;;;;;;;;13.27;100.00;102096.28;4938311;28;20274;-81
2023/08/10 04:17:53;;;;;;;;;;;;;;;13.29;100.00;102089.09;4920074;28;20305;-82
2023/08/10 04:20:39;;;;;;;;;;;;;;;13.30;100.00;102096.16;4937976;28;19937;-82
2023/08/10 04:23:25;;;;;;;;;;;;;;;13.32;100.00;102093.44;4936539;28;19937;-80
2023/08/10 04:26:10;;;;;;;;;;;;;;;13.34;100.00;102094.25;4935427;28;19965;-81
2023/08/10 04:28:56;;;;;;;;;;;;;;;13.37;100.00;102085.28;4937668;28;19937;-82
2023/08/10 04:31:42;;;;;;;;;;;;;;;13.38;100.00;102093.22;4936545;28;20369;-82
2023/08/10 04:34:28;;;;;;;;;;;;;;;13.40;100.00;102091.38;4944593;28;19930;-82
2023/08/10 04:37:14;;;;;;;;;;;;;;;13.42;100.00;102092.16;4939624;28;19961;-82
2023/08/10 04:40:04;;;;;;;;;;;;;;;13.45;100.00;102099.16;4919351;28;19930;-82
2023/08/10 04:42:50;;;;;;;;;;;;;;;13.47;100.00;102086.72;4940281;28;20029;-82
2023/08/10 04:45:36;;;;;;;;;;;;;;;13.51;100.00;102098.13;4936687;28;19962;-82
2023/08/10 04:48:22;;;;;;;;;;;;;;;13.52;100.00;102091.88;4938273;28;19945;-81
2023/08/10 04:51:07;;;;;;;;;;;;;;;13.56;100.00;102096.13;4937115;28;19998;-81
2023/08/10 04:53:53;;;;;;;;;;;;;;;13.60;100.00;102096.88;4937911;28;19927;-81
2023/08/10 04:56:39;;;;;;;;;;;;;;;13.62;100.00;102095.03;4936808;28;19949;-81
2023/08/10 04:59:25;;;;;;;;;;;;;;;13.65;100.00;102094.91;4938893;28;19930;-80
2023/08/10 05:02:11;;;;;;;;;;;;;;;13.69;100.00;102092.06;4924330;28;19944;-81
2023/08/10 05:04:57;;;;;;;;;;;;;;;13.72;100.00;102088.41;4937901;28;19926;-80
2023/08/10 05:07:42;;;;;;;;;;;;;;;13.74;100.00;102091.91;4910419;28;19930;-82
2023/08/10 05:10:28;;;;;;;;;;;;;;;13.77;100.00;102098.91;4908715;28;19926;-81
2023/08/10 05:13:14;;;;;;;;;;;;;;;13.80;100.00;102098.78;4935161;28;19922;-82
2023/08/10 05:16:03;;;;;;;;;;;;;;;13.84;100.00;102095.09;4937755;28;19942;-82
2023/08/10 05:18:50;;;;;;;;;;;;;;;13.89;100.00;102097.56;4911105;28;20526;-82
2023/08/10 05:21:35;;;;;;;;;;;;;;;13.92;100.00;102098.31;4928280;28;20024;-81
2023/08/10 05:24:21;;;;;;;;;;;;;;;13.95;100.00;102098.16;4937262;28;19922;-81
2023/08/10 05:27:07;;;;;;;;;;;;;;;14.01;100.00;102097.06;4936542;28;19930;-83
2023/08/10 05:29:52;;;;;;;;;;;;;;;14.06;100.00;102094.22;4940413;28;19934;-81
2023/08/10 05:32:43;;;;;;;;;;;;;;;14.10;100.00;102098.47;4937215;28;19926;-81
2023/08/10 05:35:29;;;;;;;;;;;;;;;14.14;100.00;102105.41;4919091;28;20417;-82
2023/08/10 05:38:15;;;;;;;;;;;;;;;14.19;100.00;102100.78;4936513;28;20850;-81
2023/08/10 05:41:01;;;;;;;;;;;;;;;14.22;100.00;102100.66;4920127;28;20052;-82
2023/08/10 05:43:47;;;;;;;;;;;;;;;14.26;100.00;102090.72;4916860;28;19934;-82
2023/08/10 05:46:33;;;;;;;;;;;;;;;14.32;100.00;102097.63;4937789;28;19926;-82
2023/08/10 05:49:19;;;;;;;;;;;;;;;14.37;100.00;102103.59;4922984;28;20571;-83
2023/08/10 05:52:05;;;;;;;;;;;;;;;14.42;100.00;102101.63;4932909;28;20350;-82
2023/08/10 05:54:50;;;;;;;;;;;;;;;14.46;100.00;102097.91;4920446;28;19933;-80
2023/08/10 05:57:36;;;;;;;;;;;;;;;14.50;100.00;102098.66;4918286;28;20041;-82
2023/08/10 06:00:22;;;;;;;;;;;;;;;14.55;100.00;102098.44;4935004;28;19934;-81
2023/08/10 06:03:08;;;;;;;;;;;;;;;14.59;100.00;102097.41;4933739;28;19930;-81
2023/08/10 06:05:54;;;;;;;;;;;;;;;14.62;100.00;102097.25;4937450;28;20017;-82
2023/08/10 06:08:42;;;;;;;;;;;;;;;14.67;100.00;102105.91;4907295;28;19926;-80
2023/08/10 06:11:28;;;;;;;;;;;;;;;14.72;100.00;102106.59;4920164;28;20396;-82
2023/08/10 06:14:14;;;;;;;;;;;;;;;14.80;100.00;102106.28;4936138;28;19937;-82
2023/08/10 06:17:04;;;;;;;;;;;;;;;14.92;100.00;102107.53;4935251;28;19926;-81
2023/08/10 06:19:53;;;;;;;;;;;;;;;15.05;100.00;102105.22;4929399;28;19953;-82
2023/08/10 06:22:45;;;;;;;;;;;;;;;15.19;100.00;102118.78;4935374;28;19926;-82
2023/08/10 06:25:31;;;;;;;;;;;;;;;15.29;100.00;102119.25;4933954;28;19931;-82
2023/08/10 06:28:17;;;;;;;;;;;;;;;15.37;100.00;102132.25;4933842;28;19926;-82
2023/08/10 06:31:02;;;;;;;;;;;;;;;15.41;100.00;102127.63;4932562;28;20334;-84
2023/08/10 06:33:50;;;;;;;;;;;;;;;15.46;100.00;102122.94;4934958;28;20758;-83
2023/08/10 06:36:36;;;;;;;;;;;;;;;15.50;100.00;102116.53;4918078;29;19941;-81
2023/08/10 06:39:21;;;;;;;;;;;;;;;15.54;100.00;102126.13;4934641;28;20061;-77
2023/08/10 06:42:07;;;;;;;;;;;;;;;15.60;100.00;102124.97;4917387;28;19926;-78
2023/08/10 06:44:53;;;;;;;;;;;;;;;15.65;100.00;102122.09;4919673;28;20189;-77
2023/08/10 06:47:40;;;;;;;;;;;;;;;15.72;100.00;102116.41;4937332;28;20416;-77
2023/08/10 06:50:26;;;;;;;;;;;;;;;15.80;100.00;102134.72;4937340;28;19926;-78
2023/08/10 06:53:12;;;;;;;;;;;;;;;15.84;100.00;102128.31;4937591;28;19972;-77
2023/08/10 06:55:57;;;;;;;;;;;;;;;15.87;100.00;102136.16;4923031;28;19922;-79
2023/08/10 06:58:43;;;;;;;;;;;;;;;15.91;100.00;102131.53;4935273;28;19969;-79
2023/08/10 07:01:29;;;;;;;;;;;;;;;15.98;100.00;102129.47;4935115;28;20608;-79
2023/08/10 07:04:15;;;;;;;;;;;;;;;16.04;100.00;102130.97;4921074;28;19937;-80
2023/08/10 07:07:03;;;;;;;;;;;;;;;16.14;100.00;102129.59;4938322;28;19922;-80
2023/08/10 07:09:48;;;;;;;;;;;;;;;16.19;100.00;102129.38;4934850;28;20158;-81
2023/08/10 07:12:34;;;;;;;;;;;;;;;16.23;100.00;102133.63;4939190;28;19934;-79
2023/08/10 07:15:20;;;;;;;;;;;;;;;16.26;100.00;102130.81;4925354;28;19930;-85
2023/08/10 07:18:05;;;;;;;;;;;;;;;16.30;100.00;102137.75;4910910;28;19970;-85
2023/08/10 07:20:51;;;;;;;;;;;;;;;16.34;100.00;102135.78;4928220;28;19918;-83
2023/08/10 07:23:37;;;;;;;;;;;;;;;16.36;100.00;102140.13;4930911;28;19930;-83
2023/08/10 07:26:36;;;;;;;;;;;;;;;16.38;100.00;102140.00;4940932;28;19926;-86
2023/08/10 07:29:21;;;;;;;;;;;;;;;16.40;100.00;102140.81;4936511;28;19930;-83
2023/08/10 07:32:07;;;;;;;;;;;;;;;16.45;100.00;102137.91;4940360;28;20082;-83
2023/08/10 07:34:56;;;;;;;;;;;;;;;16.49;100.00;102139.47;4939323;28;19926;-85
2023/08/10 07:37:44;;;;;;;;;;;;;;;16.56;100.00;102139.09;4943707;28;20021;-84
2023/08/10 07:40:30;;;;;;;;;;;;;;;16.63;100.00;102145.03;4920288;28;19961;-85
2023/08/10 07:43:17;;;;;;;;;;;;;;;16.69;100.00;102147.34;4928847;28;20065;-84
2023/08/10 07:46:02;;;;;;;;;;;;;;;16.75;100.00;102142.66;4942519;28;20016;-85
2023/08/10 07:48:48;;;;;;;;;;;;;;;16.79;100.00;102144.22;4941823;28;19930;-84
2023/08/10 07:51:34;;;;;;;;;;;;;;;16.85;100.00;102141.25;4924741;28;19937;-84
2023/08/10 07:54:19;;;;;;;;;;;;;;;16.89;100.00;102153.50;4939917;28;19930;-85
2023/08/10 07:57:05;;;;;;;;;;;;;;;16.97;100.00;102148.63;4924187;28;19937;-84
2023/08/10 07:59:51;;;;;;;;;;;;;;;17.04;100.00;102154.53;4946291;28;20530;-86
2023/08/10 08:02:36;;;;;;;;;;;;;;;17.08;100.00;102155.25;4924563;28;20263;-85
2023/08/10 08:05:22;;;;;;;;;;;;;;;17.13;100.00;102152.31;4926248;28;20104;-86
2023/08/10 08:08:08;;;;;;;;;;;;;;;17.17;100.00;102154.75;4937596;28;19980;-85
2023/08/10 08:10:54;;;;;;;;;;;;;;;17.18;100.00;102155.63;4937698;28;20044;-85
2023/08/10 08:13:40;;;;;;;;;;;;;;;17.18;100.00;102155.63;4938154;28;19930;-85
2023/08/10 08:16:28;;;;;;;;;;;;;;;17.17;100.00;102151.22;4913681;28;20035;-85
2023/08/10 08:19:14;;;;;;;;;;;;;;;17.16;100.00;102160.22;4924706;28;19926;-85
2023/08/10 08:21:59;;;;;;;;;;;;;;;17.14;100.00;102154.94;4944534;28;19941;-86
2023/08/10 08:24:49;;;;;;;;;;;;;;;17.16;100.00;102158.38;4941046;28;20663;-86
2023/08/10 08:27:35;;;;;;;;;;;;;;;17.17;100.00;102161.94;4941288;28;19926;-85
2023/08/10 08:30:25;;;;;;;;;;;;;;;17.18;100.00;102160.97;4942731;28;19929;-86
2023/08/10 08:33:12;;;;;;;;;;;;;;;17.19;100.00;102158.25;4927069;28;19929;-86
2023/08/10 08:35:58;;;;;;;;;;;;;;;17.22;100.00;102163.41;4924324;28;19930;-86
2023/08/10 08:38:44;;;;;;;;;;;;;;;17.26;100.00;102163.28;4942549;28;19923;-86
2023/08/10 08:41:33;;;;;;;;;;;;;;;17.32;100.00;102162.94;4944894;28;19937;-85
2023/08/10 08:44:19;;;;;;;;;;;;;;;17.38;100.00;102162.63;4924850;28;19960;-86
2023/08/10 08:47:07;;;;;;;;;;;;;;;17.44;100.00;102161.41;4911539;28;19926;-85
2023/08/10 08:49:52;;;;;;;;;;;;;;;17.50;100.00;102169.13;4943276;28;19926;-85
2023/08/10 08:52:39;;;;;;;;;;;;;;;17.53;100.00;102160.91;4929111;28;20237;-85
2023/08/10 08:55:25;;;;;;;;;;;;;;;17.60;100.00;102164.13;4907097;28;19933;-84
2023/08/10 08:58:10;;;;;;;;;;;;;;;17.63;100.00;102163.94;4929528;28;19929;-86
2023/08/10 09:01:08;;;;;;;;;;;;;;;17.67;100.00;102157.50;4942501;28;19954;-85
2023/08/10 09:03:54;;;;;;;;;;;;;;;17.71;100.00;102156.34;4943627;28;19937;-83
2023/08/10 09:06:40;;;;;;;;;;;;;;;17.77;100.00;102156.00;4943007;28;20678;-88
2023/08/10 09:09:28;;;;;;;;;;;;;;;17.84;100.00;102155.69;4943381;28;20407;-85
2023/08/10 09:12:29;;;;;;;;;;;;;;;17.89;100.00;102150.94;4924720;28;19926;-86
2023/08/10 09:15:15;;;;;;;;;;;;;;;17.94;100.00;102154.22;4941854;28;19977;-83
2023/08/10 09:18:04;;;;;;;;;;;;;;;18.00;100.00;102151.22;4926783;28;19922;-84
2023/08/10 09:20:50;;;;;;;;;;;;;;;18.05;100.00;102145.63;4939806;28;20353;-83
2023/08/10 09:23:37;;;;;;;;;;;;;;;18.15;100.00;102146.81;4941641;28;20725;-84
2023/08/10 09:26:26;;;;;;;;;;;;;;;18.22;100.00;102144.66;4940487;28;19982;-85
2023/08/10 09:29:12;;;;;;;;;;;;;;;18.30;100.00;102138.84;4927212;28;19927;-85
2023/08/10 09:32:15;;;;;;;;;;;;;;;18.31;100.00;102141.44;4940496;28;19930;-84
2023/08/10 09:35:01;;;;;;;;;;;;;;;18.31;100.00;102138.75;4914789;28;19926;-85
2023/08/10 09:37:47;;;;;;;;;;;;;;;18.35;100.00;102142.09;4927840;28;20403;-86
2023/08/10 09:40:33;;;;;;;;;;;;;;;18.41;100.00;102140.91;4920535;28;20389;-84
2023/08/10 09:43:18;;;;;;;;;;;;;;;18.46;100.00;102144.16;4910174;28;19926;-86
2023/08/10 09:46:04;;;;;;;;;;;;;;;18.53;100.00;102150.03;4924802;28;19973;-85
2023/08/10 09:48:50;;;;;;;;;;;;;;;18.59;100.00;102150.53;4939481;28;19934;-85
2023/08/10 09:51:38;;;;;;;;;;;;;;;18.69;100.00;102147.31;4925207;28;19922;-85
2023/08/10 09:54:24;;;;;;;;;;;;;;;18.75;100.00;102144.28;4927122;28;20373;-85
2023/08/10 09:57:10;;;;;;;;;;;;;;;18.78;100.00;102140.56;4925264;28;19922;-86
2023/08/10 09:59:56;;;;;;;;;;;;;;;18.83;100.00;102142.00;4939927;28;19961;-86
2023/08/10 10:02:41;;;;;;;;;;;;;;;18.84;100.00;102149.09;4943029;28;19926;-85
2023/08/10 10:05:27;;;;;;;;;;;;;;;18.87;100.00;102146.19;4924695;28;21894;-84
2023/08/10 10:08:15;;;;;;;;;;;;;;;18.84;100.00;102143.72;4942161;28;19926;-85
2023/08/10 10:11:11;;;;;;;;;;;;;;;18.87;100.00;102145.34;4939505;28;19933;-86
2023/08/10 10:13:59;;;;;;;;;;;;;;;18.95;100.00;102142.22;4932978;28;20008;-84
2023/08/10 10:16:45;;;;;;;;;;;;;;;19.03;100.00;102141.75;4937960;28;19954;-86
2023/08/10 10:19:31;;;;;;;;;;;;;;;19.12;100.00;102146.59;4927773;28;20228;-85
2023/08/10 10:22:16;;;;;;;;;;;;;;;19.20;100.00;102140.72;4943829;28;19937;-84
2023/08/10 10:25:02;;;;;;;;;;;;;;;19.30;100.00;102143.69;4938953;28;19926;-84
2023/08/10 10:27:51;;;;;;;;;;;;;;;19.39;100.00;102135.09;4940485;28;19952;-84
2023/08/10 10:30:37;;;;;;;;;;;;;;;19.59;100.00;102139.19;4936458;28;19945;-86
2023/08/10 10:33:26;;;;;;;;;;;;;;;19.78;100.00;102135.34;4956137;28;19945;-86
2023/08/10 10:36:12;;;;;;;;;;;;;;;19.91;100.00;102144.31;4946359;28;19941;-85
2023/08/10 10:39:07;;;;;;;;;;;;;;;19.97;100.00;102142.22;4921985;28;20397;-84
2023/08/10 10:41:53;;;;;;;;;;;;;;;19.90;100.00;102142.59;4937566;28;19927;-77
2023/08/10 10:44:58;;;;;;;;;;;;;;;19.83;100.00;102135.88;4947981;28;20072;-78
2023/08/10 10:47:47;;;;;;;;;;;;;;;19.85;100.00;102136.66;4941611;28;19934;-77
2023/08/10 10:50:33;;;;;;;;;;;;;;;19.81;100.00;102135.13;4937238;28;19923;-77
2023/08/10 10:53:19;;;;;;;;;;;;;;;19.74;100.00;102128.44;4936076;28;19953;-75
2023/08/10 10:56:05;;;;;;;;;;;;;;;19.78;100.00;102121.91;4931792;28;20445;-78
2023/08/10 10:58:51;;;;;;;;;;;;;;;19.83;100.00;102129.66;4939203;28;20418;-78
2023/08/10 11:01:36;;;;;;;;;;;;;;;19.90;100.00;102122.94;4938429;28;19989;-76
2023/08/10 11:04:23;;;;;;;;;;;;;;;20.00;100.00;102125.91;4940110;28;19922;-77
2023/08/10 11:07:10;;;;;;;;;;;;;;;20.06;100.00;102126.34;4937320;28;19941;-77
2023/08/10 11:10:03;;;;;;;;;;;;;;;20.12;100.00;102117.03;4934347;28;19919;-77
2023/08/10 11:12:48;;;;;;;;;;;;;;;20.13;100.00;102121.44;4931907;28;20289;-77
2023/08/10 11:15:36;;;;;;;;;;;;;;;20.22;100.00;102119.97;4931956;28;20012;-77
2023/08/10 11:18:22;;;;;;;;;;;;;;;20.23;100.00;102127.06;4933924;28;19990;-77
2023/08/10 11:21:13;;;;;;;;;;;;;;;20.18;100.00;102119.31;4936690;28;19926;-77
2023/08/10 11:23:58;;;;;;;;;;;;;;;20.15;100.00;102132.94;4935059;28;19933;-76
2023/08/10 11:26:53;;;;;;;;;;;;;;;20.10;100.00;102110.03;4936234;28;19930;-77
2023/08/10 11:29:42;;;;;;;;;;;;;;;20.06;100.00;102110.22;4919247;28;19934;-77
2023/08/10 11:32:27;;;;;;;;;;;;;;;20.07;100.00;102117.34;4932854;28;19922;-77
2023/08/10 11:35:14;;;;;;;;;;;;;;;20.01;100.00;102119.56;4932573;28;19926;-76
2023/08/10 11:38:05;;;;;;;;;;;;;;;19.99;100.00;102108.91;4921646;28;19926;-77
2023/08/10 11:40:59;;;;;;;;;;;;;;;19.98;100.00;102106.34;4938124;28;20555;-77
2023/08/10 11:43:46;;;;;;;;;;;;;;;19.99;100.00;102098.16;4952208;28;19946;-77
2023/08/10 11:46:31;;;;;;;;;;;;;;;20.00;100.00;102101.72;4939810;28;19926;-77
2023/08/10 11:49:17;;;;;;;;;;;;;;;20.05;100.00;102115.72;4937659;28;20093;-77
2023/08/10 11:52:03;;;;;;;;;;;;;;;20.10;100.00;102108.19;4938050;28;20052;-76
2023/08/10 11:54:52;;;;;;;;;;;;;;;20.08;100.00;102108.31;4934699;28;19984;-77
2023/08/10 11:57:38;;;;;;;;;;;;;;;20.08;100.00;102102.94;4926366;28;19934;-77
2023/08/10 12:00:30;;;;;;;;;;;;;;;20.14;100.00;102104.34;4940687;28;20331;-76
2023/08/10 12:03:19;;;;;;;;;;;;;;;20.28;100.00;102105.25;4941081;28;19923;-77
2023/08/10 12:06:07;;;;;;;;;;;;;;;20.31;100.00;102113.09;4936812;28;19926;-77
2023/08/10 12:08:53;;;;;;;;;;;;;;;20.29;100.00;102104.28;4939690;28;19965;-76
2023/08/10 12:11:39;;;;;;;;;;;;;;;20.28;100.00;102103.44;4941475;28;19941;-77
2023/08/10 12:14:26;;;;;;;;;;;;;;;20.26;100.00;102099.97;4937606;28;19985;-77
2023/08/10 12:17:12;;;;;;;;;;;;;;;20.24;100.00;102101.03;4936261;28;19930;-77
2023/08/10 12:19:57;;;;;;;;;;;;;;;20.16;100.00;102105.09;4940170;28;19969;-77
2023/08/10 12:22:43;;;;;;;;;;;;;;;20.08;100.00;102102.06;4937143;28;20677;-76
2023/08/10 12:25:32;;;;;;;;;;;;;;;20.03;100.00;102107.75;4938996;28;20283;-77
2023/08/10 12:28:18;;;;;;;;;;;;;;;20.02;100.00;102113.22;5033796;23;20110;-77
2023/08/10 12:31:06;;;;;;;;;;;;;;;20.05;100.00;102103.13;5012757;28;19928;-76
2023/08/10 12:33:55;;;;;;;;;;;;;;;20.11;100.00;102093.81;4998280;28;19929;-75
2023/08/10 12:36:40;;;;;;;;;;;;;;;20.17;100.00;102089.84;5008040;28;20855;-77
2023/08/10 12:39:26;;;;;;;;;;;;;;;20.17;100.00;102092.53;5001361;28;19987;-77
2023/08/10 12:42:12;;;;;;;;;;;;;;;20.22;100.00;102093.94;5004228;28;19955;-76
2023/08/10 12:45:01;;;;;;;;;;;;;;;20.27;100.00;102100.84;5009098;28;19964;-77
2023/08/10 12:47:49;;;;;;;;;;;;;;;20.26;100.00;102096.44;5008312;28;19984;-76
2023/08/10 12:50:35;;;;;;;;;;;;;;;20.19;100.00;102104.03;4992216;28;20008;-77
2023/08/10 12:53:22;;;;;;;;;;;;;;;20.17;100.00;102085.34;5008771;28;19925;-75
2023/08/10 12:56:08;;;;;;;;;;;;;;;20.15;100.00;102089.09;5008236;28;20350;-78
2023/08/10 12:58:54;;;;;;;;;;;;;;;20.14;100.00;102087.34;5008886;28;20020;-77
2023/08/10 13:01:39;;;;;;;;;;;;;;;20.15;100.00;102086.41;5009708;28;20376;-77
2023/08/10 13:04:25;;;;;;;;;;;;;;;20.12;100.00;102084.78;5021191;28;19924;-76
2023/08/10 13:07:10;;;;;;;;;;;;;;;20.18;100.00;102086.19;5007389;28;20032;-75
2023/08/10 13:09:59;;;;;;;;;;;;;;;20.28;100.00;102086.44;5008905;28;20550;-76
2023/08/10 13:12:47;;;;;;;;;;;;;;;20.34;100.00;102091.41;5008458;28;19921;-77
2023/08/10 13:15:33;;;;;;;;;;;;;;;20.31;100.00;102091.59;5009156;28;19921;-76
2023/08/10 13:18:21;;;;;;;;;;;;;;;20.33;100.00;102087.84;5016692;28;20118;-77
2023/08/10 13:21:06;;;;;;;;;;;;;;;20.38;100.00;102092.94;5007619;28;19983;-77
2023/08/10 13:23:52;;;;;;;;;;;;;;;20.45;100.00;102101.44;5012106;28;19917;-77
2023/08/10 13:26:37;;;;;;;;;;;;;;;20.53;100.00;102096.38;5005208;28;19928;-78
2023/08/10 13:29:23;;;;;;;;;;;;;;;20.61;100.00;102093.19;5008972;28;19947;-77
2023/08/10 13:32:24;;;;;;;;;;;;;;;20.63;100.00;102102.00;5006471;28;19925;-76
2023/08/10 13:35:10;;;;;;;;;;;;;;;20.57;100.00;102095.22;5007574;28;19935;-77
2023/08/10 13:37:56;;;;;;;;;;;;;;;20.55;100.00;102093.59;4992071;28;21820;-77
2023/08/10 13:40:42;;;;;;;;;;;;;;;20.53;100.00;102101.75;4977740;28;19975;-77
2023/08/10 13:43:27;;;;;;;;;;;;;;;20.52;100.00;102099.19;4974847;28;20422;-76
2023/08/10 13:46:16;;;;;;;;;;;;;;;20.51;100.00;102102.81;4989419;28;19932;-76
2023/08/10 13:49:01;;;;;;;;;;;;;;;20.53;100.00;102101.75;4990250;28;20001;-77
2023/08/10 13:51:48;;;;;;;;;;;;;;;20.59;100.00;102095.97;4991769;28;19936;-77
2023/08/10 13:54:37;;;;;;;;;;;;;;;20.66;100.00;102098.22;5006323;28;19932;-77
2023/08/10 13:57:23;;;;;;;;;;;;;;;20.69;100.00;102104.25;4991398;28;20376;-75
2023/08/10 14:00:09;;;;;;;;;;;;;;;20.69;100.00;102096.19;4991943;28;19924;-76
2023/08/10 14:02:58;;;;;;;;;;;;;;;20.68;100.00;102090.91;4975443;28;19991;-77
2023/08/10 14:05:44;;;;;;;;;;;;;;;20.62;100.00;102095.78;5006326;28;20020;-75
2023/08/10 14:08:33;;;;;;;;;;;;;;;20.61;100.00;102087.78;5006073;28;19933;-77